sensor_id;sensor_type;location;lat;lon;timestamp;pressure;altitude;pressure_sealevel;temperature
17142;BMP180;32805;53.556;9.944;2023-02-15T00:01:38;102819.00;;;5.70
17142;BMP180;32805;53.556;9.944;2023-02-15T00:04:06;102807.00;;;5.80
17142;BMP180;32805;53.556;9.944;2023-02-15T00:06:34;102815.00;;;5.80
17142;BMP180;32805;53.556;9.944;2023-02-15T00:09:02;102810.00;;;5.80
17142;BMP180;32805;53.556;9.944;2023-02-15T00:11:30;102800.00;;;5.80
17142;BMP180;32805;53.556;9.944;2023-02-15T00:14:10;102796.00;;;5.80
17142;BMP180;32805;53.556;9.944;2023-02-15T00:16:41;102805.00;;;5.90
17142;BMP180;32805;53.556;9.944;2023-02-15T00:19:10;102792.00;;;5.90
17142;BMP180;32805;53.556;9.944;2023-02-15T00:21:39;102799.00;;;5.90
17142;BMP180;32805;53.556;9.944;2023-02-15T00:24:08;102804.00;;;5.80
17142;BMP180;32805;53.556;9.944;2023-02-15T00:26:38;102792.00;;;5.90
17142;BMP180;32805;53.556;9.944;2023-02-15T00:29:06;102788.00;;;5.90
17142;BMP180;32805;53.556;9.944;2023-02-15T00:31:34;102781.00;;;5.70
17142;BMP180;32805;53.556;9.944;2023-02-15T00:34:05;102782.00;;;5.60
17142;BMP180;32805;53.556;9.944;2023-02-15T00:36:34;102778.00;;;5.60
17142;BMP180;32805;53.556;9.944;2023-02-15T00:39:02;102782.00;;;5.60
17142;BMP180;32805;53.556;9.944;2023-02-15T00:41:31;102780.00;;;5.60
17142;BMP180;32805;53.556;9.944;2023-02-15T00:43:59;102776.00;;;5.70
17142;BMP180;32805;53.556;9.944;2023-02-15T00:46:28;102770.00;;;5.70
17142;BMP180;32805;53.556;9.944;2023-02-15T00:48:56;102778.00;;;5.70
17142;BMP180;32805;53.556;9.944;2023-02-15T00:51:25;102780.00;;;5.80
17142;BMP180;32805;53.556;9.944;2023-02-15T00:53:53;102763.00;;;5.80
17142;BMP180;32805;53.556;9.944;2023-02-15T00:56:21;102773.00;;;5.80
17142;BMP180;32805;53.556;9.944;2023-02-15T00:58:49;102777.00;;;5.80
17142;BMP180;32805;53.556;9.944;2023-02-15T01:01:18;102771.00;;;5.80
17142;BMP180;32805;53.556;9.944;2023-02-15T01:03:46;102768.00;;;5.80
17142;BMP180;32805;53.556;9.944;2023-02-15T01:06:15;102764.00;;;5.80
17142;BMP180;32805;53.556;9.944;2023-02-15T01:08:45;102766.00;;;5.80
17142;BMP180;32805;53.556;9.944;2023-02-15T01:11:15;102764.00;;;5.80
17142;BMP180;32805;53.556;9.944;2023-02-15T01:13:50;102755.00;;;5.80
17142;BMP180;32805;53.556;9.944;2023-02-15T01:16:18;102768.00;;;5.80
17142;BMP180;32805;53.556;9.944;2023-02-15T01:18:46;102765.00;;;5.70
17142;BMP180;32805;53.556;9.944;2023-02-15T01:21:17;102762.00;;;5.80
17142;BMP180;32805;53.556;9.944;2023-02-15T01:23:46;102759.00;;;5.90
17142;BMP180;32805;53.556;9.944;2023-02-15T01:26:15;102744.00;;;5.90
17142;BMP180;32805;53.556;9.944;2023-02-15T01:28:43;102748.00;;;5.90
17142;BMP180;32805;53.556;9.944;2023-02-15T01:31:13;102750.00;;;5.80
17142;BMP180;32805;53.556;9.944;2023-02-15T01:33:43;102747.00;;;5.80
17142;BMP180;32805;53.556;9.944;2023-02-15T01:36:11;102739.00;;;5.80
17142;BMP180;32805;53.556;9.944;2023-02-15T01:38:38;102739.00;;;5.80
17142;BMP180;32805;53.556;9.944;2023-02-15T01:41:09;102731.00;;;5.80
17142;BMP180;32805;53.556;9.944;2023-02-15T01:43:52;102721.00;;;5.70
17142;BMP180;32805;53.556;9.944;2023-02-15T01:46:24;102734.00;;;5.70
17142;BMP180;32805;53.556;9.944;2023-02-15T01:48:57;102726.00;;;5.80
17142;BMP180;32805;53.556;9.944;2023-02-15T01:51:29;102738.00;;;5.80
17142;BMP180;32805;53.556;9.944;2023-02-15T01:53:59;102734.00;;;5.80
17142;BMP180;32805;53.556;9.944;2023-02-15T01:56:33;102726.00;;;5.80
17142;BMP180;32805;53.556;9.944;2023-02-15T01:59:05;102727.00;;;5.80
17142;BMP180;32805;53.556;9.944;2023-02-15T02:01:34;102729.00;;;5.90
17142;BMP180;32805;53.556;9.944;2023-02-15T02:04:09;102724.00;;;5.80
17142;BMP180;32805;53.556;9.944;2023-02-15T02:06:40;102722.00;;;5.70
17142;BMP180;32805;53.556;9.944;2023-02-15T02:09:08;102706.00;;;5.80
17142;BMP180;32805;53.556;9.944;2023-02-15T02:11:39;102711.00;;;5.80
17142;BMP180;32805;53.556;9.944;2023-02-15T02:14:07;102707.00;;;5.90
17142;BMP180;32805;53.556;9.944;2023-02-15T02:16:41;102704.00;;;5.90
17142;BMP180;32805;53.556;9.944;2023-02-15T02:19:42;102702.00;;;5.80
17142;BMP180;32805;53.556;9.944;2023-02-15T02:22:36;102692.00;;;5.90
17142;BMP180;32805;53.556;9.944;2023-02-15T02:25:44;102684.00;;;5.90
17142;BMP180;32805;53.556;9.944;2023-02-15T02:28:29;102688.00;;;5.90
17142;BMP180;32805;53.556;9.944;2023-02-15T02:31:18;102690.00;;;5.90
17142;BMP180;32805;53.556;9.944;2023-02-15T02:33:59;102664.00;;;5.80
17142;BMP180;32805;53.556;9.944;2023-02-15T02:36:32;102682.00;;;5.80
17142;BMP180;32805;53.556;9.944;2023-02-15T02:39:14;102676.00;;;5.70
17142;BMP180;32805;53.556;9.944;2023-02-15T02:41:54;102681.00;;;5.70
17142;BMP180;32805;53.556;9.944;2023-02-15T02:44:25;102679.00;;;5.80
17142;BMP180;32805;53.556;9.944;2023-02-15T02:46:58;102670.00;;;5.70
17142;BMP180;32805;53.556;9.944;2023-02-15T02:49:34;102664.00;;;5.70
17142;BMP180;32805;53.556;9.944;2023-02-15T02:52:04;102654.00;;;5.70
17142;BMP180;32805;53.556;9.944;2023-02-15T02:54:34;102651.00;;;5.70
17142;BMP180;32805;53.556;9.944;2023-02-15T02:57:04;102657.00;;;5.70
17142;BMP180;32805;53.556;9.944;2023-02-15T02:59:38;102649.00;;;5.70
17142;BMP180;32805;53.556;9.944;2023-02-15T03:02:11;102651.00;;;5.60
17142;BMP180;32805;53.556;9.944;2023-02-15T03:04:45;102656.00;;;5.70
17142;BMP180;32805;53.556;9.944;2023-02-15T03:07:16;102658.00;;;5.60
17142;BMP180;32805;53.556;9.944;2023-02-15T03:09:50;102652.00;;;5.70
17142;BMP180;32805;53.556;9.944;2023-02-15T03:12:20;102666.00;;;5.70
17142;BMP180;32805;53.556;9.944;2023-02-15T03:14:52;102652.00;;;5.80
17142;BMP180;32805;53.556;9.944;2023-02-15T03:17:22;102655.00;;;5.80
17142;BMP180;32805;53.556;9.944;2023-02-15T03:19:54;102650.00;;;5.70
17142;BMP180;32805;53.556;9.944;2023-02-15T03:22:26;102645.00;;;5.70
17142;BMP180;32805;53.556;9.944;2023-02-15T03:24:58;102646.00;;;5.70
17142;BMP180;32805;53.556;9.944;2023-02-15T03:27:31;102639.00;;;5.70
17142;BMP180;32805;53.556;9.944;2023-02-15T03:30:02;102634.00;;;5.80
17142;BMP180;32805;53.556;9.944;2023-02-15T03:32:32;102624.00;;;5.80
17142;BMP180;32805;53.556;9.944;2023-02-15T03:35:02;102628.00;;;5.90
17142;BMP180;32805;53.556;9.944;2023-02-15T03:37:32;102638.00;;;5.90
17142;BMP180;32805;53.556;9.944;2023-02-15T03:40:07;102627.00;;;5.90
17142;BMP180;32805;53.556;9.944;2023-02-15T03:42:54;102631.00;;;5.90
17142;BMP180;32805;53.556;9.944;2023-02-15T03:45:25;102623.00;;;5.80
17142;BMP180;32805;53.556;9.944;2023-02-15T03:47:55;102617.00;;;5.80
17142;BMP180;32805;53.556;9.944;2023-02-15T03:50:28;102613.00;;;5.80
17142;BMP180;32805;53.556;9.944;2023-02-15T03:53:18;102618.00;;;5.80
17142;BMP180;32805;53.556;9.944;2023-02-15T03:55:47;102616.00;;;5.80
17142;BMP180;32805;53.556;9.944;2023-02-15T03:58:15;102614.00;;;5.80
17142;BMP180;32805;53.556;9.944;2023-02-15T04:01:11;102608.00;;;5.80
17142;BMP180;32805;53.556;9.944;2023-02-15T04:04:01;102616.00;;;5.80
17142;BMP180;32805;53.556;9.944;2023-02-15T04:06:31;102606.00;;;5.80
17142;BMP180;32805;53.556;9.944;2023-02-15T04:08:59;102609.00;;;5.80
17142;BMP180;32805;53.556;9.944;2023-02-15T04:11:44;102611.00;;;5.70
17142;BMP180;32805;53.556;9.944;2023-02-15T04:14:12;102593.00;;;5.70
17142;BMP180;32805;53.556;9.944;2023-02-15T04:16:53;102605.00;;;5.60
17142;BMP180;32805;53.556;9.944;2023-02-15T04:19:21;102592.00;;;5.60
17142;BMP180;32805;53.556;9.944;2023-02-15T04:22:08;102598.00;;;5.70
17142;BMP180;32805;53.556;9.944;2023-02-15T04:24:53;102606.00;;;5.70
17142;BMP180;32805;53.556;9.944;2023-02-15T04:27:41;102587.00;;;5.70
17142;BMP180;32805;53.556;9.944;2023-02-15T04:30:11;102598.00;;;5.70
17142;BMP180;32805;53.556;9.944;2023-02-15T04:32:39;102587.00;;;5.60
17142;BMP180;32805;53.556;9.944;2023-02-15T04:35:07;102594.00;;;5.60
17142;BMP180;32805;53.556;9.944;2023-02-15T04:37:37;102597.00;;;5.50
17142;BMP180;32805;53.556;9.944;2023-02-15T04:40:07;102594.00;;;5.50
17142;BMP180;32805;53.556;9.944;2023-02-15T04:42:35;102586.00;;;5.50
17142;BMP180;32805;53.556;9.944;2023-02-15T04:45:03;102580.00;;;5.40
17142;BMP180;32805;53.556;9.944;2023-02-15T04:47:31;102585.00;;;5.40
17142;BMP180;32805;53.556;9.944;2023-02-15T04:49:58;102582.00;;;5.40
17142;BMP180;32805;53.556;9.944;2023-02-15T04:52:26;102582.00;;;5.40
17142;BMP180;32805;53.556;9.944;2023-02-15T04:54:55;102583.00;;;5.40
17142;BMP180;32805;53.556;9.944;2023-02-15T04:57:23;102582.00;;;5.40
17142;BMP180;32805;53.556;9.944;2023-02-15T04:59:50;102583.00;;;5.30
17142;BMP180;32805;53.556;9.944;2023-02-15T05:02:18;102584.00;;;5.40
17142;BMP180;32805;53.556;9.944;2023-02-15T05:04:46;102575.00;;;5.50
17142;BMP180;32805;53.556;9.944;2023-02-15T05:07:13;102572.00;;;5.50
17142;BMP180;32805;53.556;9.944;2023-02-15T05:09:41;102572.00;;;5.50
17142;BMP180;32805;53.556;9.944;2023-02-15T05:12:10;102572.00;;;5.50
17142;BMP180;32805;53.556;9.944;2023-02-15T05:14:38;102560.00;;;5.50
17142;BMP180;32805;53.556;9.944;2023-02-15T05:17:06;102559.00;;;5.50
17142;BMP180;32805;53.556;9.944;2023-02-15T05:19:33;102555.00;;;5.50
17142;BMP180;32805;53.556;9.944;2023-02-15T05:22:01;102563.00;;;5.50
17142;BMP180;32805;53.556;9.944;2023-02-15T05:24:28;102566.00;;;5.50
17142;BMP180;32805;53.556;9.944;2023-02-15T05:27:15;102567.00;;;5.50
17142;BMP180;32805;53.556;9.944;2023-02-15T05:30:00;102556.00;;;5.60
17142;BMP180;32805;53.556;9.944;2023-02-15T05:32:28;102557.00;;;5.60
17142;BMP180;32805;53.556;9.944;2023-02-15T05:34:55;102522.00;;;5.60
17142;BMP180;32805;53.556;9.944;2023-02-15T05:37:23;102555.00;;;5.60
17142;BMP180;32805;53.556;9.944;2023-02-15T05:39:51;102551.00;;;5.60
17142;BMP180;32805;53.556;9.944;2023-02-15T05:42:20;102540.00;;;5.50
17142;BMP180;32805;53.556;9.944;2023-02-15T05:44:47;102543.00;;;5.50
17142;BMP180;32805;53.556;9.944;2023-02-15T05:47:15;102549.00;;;5.40
17142;BMP180;32805;53.556;9.944;2023-02-15T05:49:43;102536.00;;;5.40
17142;BMP180;32805;53.556;9.944;2023-02-15T05:52:10;102536.00;;;5.40
17142;BMP180;32805;53.556;9.944;2023-02-15T05:54:38;102536.00;;;5.40
17142;BMP180;32805;53.556;9.944;2023-02-15T05:57:06;102533.00;;;5.40
17142;BMP180;32805;53.556;9.944;2023-02-15T05:59:35;102531.00;;;5.50
17142;BMP180;32805;53.556;9.944;2023-02-15T06:02:02;102533.00;;;5.40
17142;BMP180;32805;53.556;9.944;2023-02-15T06:04:30;102534.00;;;5.40
17142;BMP180;32805;53.556;9.944;2023-02-15T06:06:57;102541.00;;;5.40
17142;BMP180;32805;53.556;9.944;2023-02-15T06:09:25;102543.00;;;5.40
17142;BMP180;32805;53.556;9.944;2023-02-15T06:11:53;102542.00;;;5.30
17142;BMP180;32805;53.556;9.944;2023-02-15T06:14:20;102540.00;;;5.30
17142;BMP180;32805;53.556;9.944;2023-02-15T06:16:49;102545.00;;;5.20
17142;BMP180;32805;53.556;9.944;2023-02-15T06:19:17;102545.00;;;5.20
17142;BMP180;32805;53.556;9.944;2023-02-15T06:21:45;102546.00;;;5.20
17142;BMP180;32805;53.556;9.944;2023-02-15T06:24:12;102547.00;;;5.20
17142;BMP180;32805;53.556;9.944;2023-02-15T06:26:40;102551.00;;;5.20
17142;BMP180;32805;53.556;9.944;2023-02-15T06:29:08;102550.00;;;5.20
17142;BMP180;32805;53.556;9.944;2023-02-15T06:31:35;102555.00;;;5.20
17142;BMP180;32805;53.556;9.944;2023-02-15T06:34:05;102558.00;;;5.20
17142;BMP180;32805;53.556;9.944;2023-02-15T06:36:32;102561.00;;;5.20
17142;BMP180;32805;53.556;9.944;2023-02-15T06:39:00;102565.00;;;5.30
17142;BMP180;32805;53.556;9.944;2023-02-15T06:41:28;102561.00;;;5.40
17142;BMP180;32805;53.556;9.944;2023-02-15T06:43:56;102560.00;;;5.40
17142;BMP180;32805;53.556;9.944;2023-02-15T06:46:24;102544.00;;;5.40
17142;BMP180;32805;53.556;9.944;2023-02-15T06:48:51;102541.00;;;5.40
17142;BMP180;32805;53.556;9.944;2023-02-15T06:51:20;102548.00;;;5.40
17142;BMP180;32805;53.556;9.944;2023-02-15T06:53:48;102534.00;;;5.40
17142;BMP180;32805;53.556;9.944;2023-02-15T06:56:16;102540.00;;;5.40
17142;BMP180;32805;53.556;9.944;2023-02-15T06:58:43;102546.00;;;5.40
17142;BMP180;32805;53.556;9.944;2023-02-15T07:01:12;102545.00;;;5.40
17142;BMP180;32805;53.556;9.944;2023-02-15T07:03:40;102546.00;;;5.40
17142;BMP180;32805;53.556;9.944;2023-02-15T07:06:07;102541.00;;;5.50
17142;BMP180;32805;53.556;9.944;2023-02-15T07:08:39;102547.00;;;5.40
17142;BMP180;32805;53.556;9.944;2023-02-15T07:11:06;102520.00;;;5.40
17142;BMP180;32805;53.556;9.944;2023-02-15T07:13:52;102532.00;;;5.50
17142;BMP180;32805;53.556;9.944;2023-02-15T07:16:20;102533.00;;;5.40
17142;BMP180;32805;53.556;9.944;2023-02-15T07:18:48;102526.00;;;5.40
17142;BMP180;32805;53.556;9.944;2023-02-15T07:21:16;102525.00;;;5.40
17142;BMP180;32805;53.556;9.944;2023-02-15T07:23:45;102526.00;;;5.40
17142;BMP180;32805;53.556;9.944;2023-02-15T07:26:12;102526.00;;;5.40
17142;BMP180;32805;53.556;9.944;2023-02-15T07:28:40;102526.00;;;5.50
17142;BMP180;32805;53.556;9.944;2023-02-15T07:31:07;102514.00;;;5.50
17142;BMP180;32805;53.556;9.944;2023-02-15T07:33:35;102515.00;;;5.50
17142;BMP180;32805;53.556;9.944;2023-02-15T07:36:04;102508.00;;;5.50
17142;BMP180;32805;53.556;9.944;2023-02-15T07:38:34;102527.00;;;5.40
17142;BMP180;32805;53.556;9.944;2023-02-15T07:41:05;102520.00;;;5.30
17142;BMP180;32805;53.556;9.944;2023-02-15T07:43:36;102519.00;;;5.30
17142;BMP180;32805;53.556;9.944;2023-02-15T07:46:05;102515.00;;;5.30
17142;BMP180;32805;53.556;9.944;2023-02-15T07:48:43;102507.00;;;5.30
17142;BMP180;32805;53.556;9.944;2023-02-15T07:51:12;102501.00;;;5.20
17142;BMP180;32805;53.556;9.944;2023-02-15T07:53:41;102499.00;;;5.20
17142;BMP180;32805;53.556;9.944;2023-02-15T07:56:10;102486.00;;;5.20
17142;BMP180;32805;53.556;9.944;2023-02-15T07:58:38;102497.00;;;5.30
17142;BMP180;32805;53.556;9.944;2023-02-15T08:01:19;102499.00;;;5.30
17142;BMP180;32805;53.556;9.944;2023-02-15T08:03:49;102502.00;;;5.30
17142;BMP180;32805;53.556;9.944;2023-02-15T08:06:17;102498.00;;;5.40
17142;BMP180;32805;53.556;9.944;2023-02-15T08:08:45;102502.00;;;5.40
17142;BMP180;32805;53.556;9.944;2023-02-15T08:11:18;102497.00;;;5.40
17142;BMP180;32805;53.556;9.944;2023-02-15T08:13:54;102491.00;;;5.40
17142;BMP180;32805;53.556;9.944;2023-02-15T08:16:22;102487.00;;;5.40
17142;BMP180;32805;53.556;9.944;2023-02-15T08:18:53;102490.00;;;5.40
17142;BMP180;32805;53.556;9.944;2023-02-15T08:21:21;102487.00;;;5.40
17142;BMP180;32805;53.556;9.944;2023-02-15T08:23:52;102486.00;;;5.50
17142;BMP180;32805;53.556;9.944;2023-02-15T08:26:21;102498.00;;;5.50
17142;BMP180;32805;53.556;9.944;2023-02-15T08:28:50;102483.00;;;5.50
17142;BMP180;32805;53.556;9.944;2023-02-15T08:31:18;102475.00;;;5.40
17142;BMP180;32805;53.556;9.944;2023-02-15T08:33:48;102469.00;;;5.40
17142;BMP180;32805;53.556;9.944;2023-02-15T08:36:19;102491.00;;;5.30
17142;BMP180;32805;53.556;9.944;2023-02-15T08:38:47;102480.00;;;5.30
17142;BMP180;32805;53.556;9.944;2023-02-15T08:41:17;102479.00;;;5.30
17142;BMP180;32805;53.556;9.944;2023-02-15T08:43:46;102486.00;;;5.30
17142;BMP180;32805;53.556;9.944;2023-02-15T08:46:15;102484.00;;;5.30
17142;BMP180;32805;53.556;9.944;2023-02-15T08:48:44;102479.00;;;5.40
17142;BMP180;32805;53.556;9.944;2023-02-15T08:51:13;102469.00;;;5.50
17142;BMP180;32805;53.556;9.944;2023-02-15T08:53:44;102485.00;;;5.50
17142;BMP180;32805;53.556;9.944;2023-02-15T08:56:12;102485.00;;;5.40
17142;BMP180;32805;53.556;9.944;2023-02-15T08:58:40;102484.00;;;5.30
17142;BMP180;32805;53.556;9.944;2023-02-15T09:01:09;102479.00;;;5.30
17142;BMP180;32805;53.556;9.944;2023-02-15T09:03:37;102476.00;;;5.40
17142;BMP180;32805;53.556;9.944;2023-02-15T09:06:05;102479.00;;;5.60
17142;BMP180;32805;53.556;9.944;2023-02-15T09:08:33;102472.00;;;5.70
17142;BMP180;32805;53.556;9.944;2023-02-15T09:11:07;102472.00;;;5.80
17142;BMP180;32805;53.556;9.944;2023-02-15T09:13:35;102472.00;;;5.90
17142;BMP180;32805;53.556;9.944;2023-02-15T09:16:05;102460.00;;;5.90
17142;BMP180;32805;53.556;9.944;2023-02-15T09:18:36;102467.00;;;5.90
17142;BMP180;32805;53.556;9.944;2023-02-15T09:21:05;102461.00;;;6.00
17142;BMP180;32805;53.556;9.944;2023-02-15T09:23:33;102451.00;;;6.10
17142;BMP180;32805;53.556;9.944;2023-02-15T09:26:03;102449.00;;;6.10
17142;BMP180;32805;53.556;9.944;2023-02-15T09:28:32;102459.00;;;6.10
17142;BMP180;32805;53.556;9.944;2023-02-15T09:31:05;102457.00;;;6.20
17142;BMP180;32805;53.556;9.944;2023-02-15T09:33:34;102453.00;;;6.10
17142;BMP180;32805;53.556;9.944;2023-02-15T09:36:02;102458.00;;;6.10
17142;BMP180;32805;53.556;9.944;2023-02-15T09:38:30;102452.00;;;6.10
17142;BMP180;32805;53.556;9.944;2023-02-15T09:41:13;102455.00;;;6.20
17142;BMP180;32805;53.556;9.944;2023-02-15T09:43:53;102449.00;;;6.20
17142;BMP180;32805;53.556;9.944;2023-02-15T09:46:34;102452.00;;;6.30
17142;BMP180;32805;53.556;9.944;2023-02-15T09:49:10;102453.00;;;6.40
17142;BMP180;32805;53.556;9.944;2023-02-15T09:52:04;102453.00;;;6.40
17142;BMP180;32805;53.556;9.944;2023-02-15T09:54:45;102444.00;;;6.40
17142;BMP180;32805;53.556;9.944;2023-02-15T09:57:20;102436.00;;;6.50
17142;BMP180;32805;53.556;9.944;2023-02-15T09:59:58;102445.00;;;6.50
17142;BMP180;32805;53.556;9.944;2023-02-15T10:02:48;102451.00;;;6.50
17142;BMP180;32805;53.556;9.944;2023-02-15T10:05:32;102454.00;;;6.40
17142;BMP180;32805;53.556;9.944;2023-02-15T10:08:13;102450.00;;;6.50
17142;BMP180;32805;53.556;9.944;2023-02-15T10:10:50;102437.00;;;6.60
17142;BMP180;32805;53.556;9.944;2023-02-15T10:13:30;102446.00;;;6.60
17142;BMP180;32805;53.556;9.944;2023-02-15T10:16:12;102456.00;;;6.60
17142;BMP180;32805;53.556;9.944;2023-02-15T10:18:54;102454.00;;;6.70
17142;BMP180;32805;53.556;9.944;2023-02-15T10:21:32;102457.00;;;6.80
17142;BMP180;32805;53.556;9.944;2023-02-15T10:24:36;102452.00;;;6.80
17142;BMP180;32805;53.556;9.944;2023-02-15T10:27:12;102454.00;;;6.90
17142;BMP180;32805;53.556;9.944;2023-02-15T10:29:46;102454.00;;;6.90
17142;BMP180;32805;53.556;9.944;2023-02-15T10:32:23;102460.00;;;7.00
17142;BMP180;32805;53.556;9.944;2023-02-15T10:34:54;102458.00;;;7.00
17142;BMP180;32805;53.556;9.944;2023-02-15T10:37:51;102457.00;;;7.00
17142;BMP180;32805;53.556;9.944;2023-02-15T10:40:27;102463.00;;;7.10
17142;BMP180;32805;53.556;9.944;2023-02-15T10:43:08;102459.00;;;7.30
17142;BMP180;32805;53.556;9.944;2023-02-15T10:45:48;102453.00;;;7.40
17142;BMP180;32805;53.556;9.944;2023-02-15T10:48:40;102454.00;;;7.50
17142;BMP180;32805;53.556;9.944;2023-02-15T10:51:16;102446.00;;;7.50
17142;BMP180;32805;53.556;9.944;2023-02-15T10:54:05;102443.00;;;7.60
17142;BMP180;32805;53.556;9.944;2023-02-15T10:56:41;102432.00;;;7.80
17142;BMP180;32805;53.556;9.944;2023-02-15T10:59:32;102430.00;;;7.90
17142;BMP180;32805;53.556;9.944;2023-02-15T11:02:11;102419.00;;;7.90
17142;BMP180;32805;53.556;9.944;2023-02-15T11:04:51;102419.00;;;7.90
17142;BMP180;32805;53.556;9.944;2023-02-15T11:07:24;102412.00;;;7.90
17142;BMP180;32805;53.556;9.944;2023-02-15T11:10:00;102414.00;;;7.90
17142;BMP180;32805;53.556;9.944;2023-02-15T11:12:29;102415.00;;;7.80
17142;BMP180;32805;53.556;9.944;2023-02-15T11:15:01;102414.00;;;7.90
17142;BMP180;32805;53.556;9.944;2023-02-15T11:17:33;102421.00;;;7.90
17142;BMP180;32805;53.556;9.944;2023-02-15T11:20:16;102418.00;;;8.00
17142;BMP180;32805;53.556;9.944;2023-02-15T11:22:48;102405.00;;;8.00
17142;BMP180;32805;53.556;9.944;2023-02-15T11:25:28;102429.00;;;8.00
17142;BMP180;32805;53.556;9.944;2023-02-15T11:27:56;102421.00;;;8.10
17142;BMP180;32805;53.556;9.944;2023-02-15T11:30:27;102417.00;;;8.10
17142;BMP180;32805;53.556;9.944;2023-02-15T11:32:58;102420.00;;;8.10
17142;BMP180;32805;53.556;9.944;2023-02-15T11:35:36;102410.00;;;8.10
17142;BMP180;32805;53.556;9.944;2023-02-15T11:38:10;102402.00;;;8.10
17142;BMP180;32805;53.556;9.944;2023-02-15T11:40:44;102392.00;;;8.00
17142;BMP180;32805;53.556;9.944;2023-02-15T11:43:16;102393.00;;;7.80
17142;BMP180;32805;53.556;9.944;2023-02-15T11:45:46;102382.00;;;7.70
17142;BMP180;32805;53.556;9.944;2023-02-15T11:48:14;102366.00;;;7.60
17142;BMP180;32805;53.556;9.944;2023-02-15T11:50:45;102381.00;;;7.40
17142;BMP180;32805;53.556;9.944;2023-02-15T11:53:15;102372.00;;;7.30
17142;BMP180;32805;53.556;9.944;2023-02-15T11:55:44;102367.00;;;7.20
17142;BMP180;32805;53.556;9.944;2023-02-15T11:58:21;102373.00;;;7.10
17142;BMP180;32805;53.556;9.944;2023-02-15T12:00:52;102369.00;;;7.20
17142;BMP180;32805;53.556;9.944;2023-02-15T12:03:24;102366.00;;;7.20
17142;BMP180;32805;53.556;9.944;2023-02-15T12:05:57;102360.00;;;7.10
17142;BMP180;32805;53.556;9.944;2023-02-15T12:08:36;102356.00;;;7.10
17142;BMP180;32805;53.556;9.944;2023-02-15T12:11:07;102354.00;;;7.00
17142;BMP180;32805;53.556;9.944;2023-02-15T12:13:53;102348.00;;;7.00
17142;BMP180;32805;53.556;9.944;2023-02-15T12:16:21;102350.00;;;7.00
17142;BMP180;32805;53.556;9.944;2023-02-15T12:18:52;102342.00;;;7.00
17142;BMP180;32805;53.556;9.944;2023-02-15T12:21:28;102334.00;;;7.00
17142;BMP180;32805;53.556;9.944;2023-02-15T12:23:58;102345.00;;;7.10
17142;BMP180;32805;53.556;9.944;2023-02-15T12:26:29;102327.00;;;7.10
17142;BMP180;32805;53.556;9.944;2023-02-15T12:28:59;102331.00;;;7.10
17142;BMP180;32805;53.556;9.944;2023-02-15T12:31:32;102333.00;;;7.20
17142;BMP180;32805;53.556;9.944;2023-02-15T12:34:07;102324.00;;;7.20
17142;BMP180;32805;53.556;9.944;2023-02-15T12:36:43;102325.00;;;7.30
17142;BMP180;32805;53.556;9.944;2023-02-15T12:39:19;102326.00;;;7.30
17142;BMP180;32805;53.556;9.944;2023-02-15T12:41:57;102324.00;;;7.30
17142;BMP180;32805;53.556;9.944;2023-02-15T12:44:27;102320.00;;;7.30
17142;BMP180;32805;53.556;9.944;2023-02-15T12:46:57;102317.00;;;7.40
17142;BMP180;32805;53.556;9.944;2023-02-15T12:49:25;102321.00;;;7.50
17142;BMP180;32805;53.556;9.944;2023-02-15T12:51:56;102308.00;;;7.50
17142;BMP180;32805;53.556;9.944;2023-02-15T12:54:31;102298.00;;;7.50
17142;BMP180;32805;53.556;9.944;2023-02-15T12:57:22;102297.00;;;7.60
17142;BMP180;32805;53.556;9.944;2023-02-15T12:59:52;102297.00;;;7.70
17142;BMP180;32805;53.556;9.944;2023-02-15T13:02:24;102294.00;;;7.80
17142;BMP180;32805;53.556;9.944;2023-02-15T13:04:53;102291.00;;;7.90
17142;BMP180;32805;53.556;9.944;2023-02-15T13:07:24;102292.00;;;8.10
17142;BMP180;32805;53.556;9.944;2023-02-15T13:09:52;102294.00;;;8.10
17142;BMP180;32805;53.556;9.944;2023-02-15T13:12:21;102295.00;;;8.10
17142;BMP180;32805;53.556;9.944;2023-02-15T13:14:51;102290.00;;;8.10
17142;BMP180;32805;53.556;9.944;2023-02-15T13:17:24;102286.00;;;8.10
17142;BMP180;32805;53.556;9.944;2023-02-15T13:19:58;102279.00;;;8.10
17142;BMP180;32805;53.556;9.944;2023-02-15T13:22:35;102278.00;;;8.00
17142;BMP180;32805;53.556;9.944;2023-02-15T13:25:11;102276.00;;;8.00
17142;BMP180;32805;53.556;9.944;2023-02-15T13:27:42;102274.00;;;8.00
17142;BMP180;32805;53.556;9.944;2023-02-15T13:30:19;102277.00;;;8.00
17142;BMP180;32805;53.556;9.944;2023-02-15T13:32:51;102284.00;;;8.00
17142;BMP180;32805;53.556;9.944;2023-02-15T13:35:20;102261.00;;;8.00
17142;BMP180;32805;53.556;9.944;2023-02-15T13:38:11;102277.00;;;8.00
17142;BMP180;32805;53.556;9.944;2023-02-15T13:40:46;102270.00;;;8.00
17142;BMP180;32805;53.556;9.944;2023-02-15T13:43:27;102259.00;;;8.00
17142;BMP180;32805;53.556;9.944;2023-02-15T13:46:03;102269.00;;;8.10
17142;BMP180;32805;53.556;9.944;2023-02-15T13:48:42;102257.00;;;8.00
17142;BMP180;32805;53.556;9.944;2023-02-15T13:51:21;102255.00;;;8.00
17142;BMP180;32805;53.556;9.944;2023-02-15T13:54:00;102259.00;;;8.00
17142;BMP180;32805;53.556;9.944;2023-02-15T13:56:40;102251.00;;;8.10
17142;BMP180;32805;53.556;9.944;2023-02-15T13:59:27;102245.00;;;8.00
17142;BMP180;32805;53.556;9.944;2023-02-15T14:02:06;102247.00;;;8.10
17142;BMP180;32805;53.556;9.944;2023-02-15T14:05:09;102247.00;;;8.20
17142;BMP180;32805;53.556;9.944;2023-02-15T14:07:52;102239.00;;;8.20
17142;BMP180;32805;53.556;9.944;2023-02-15T14:10:42;102243.00;;;8.30
17142;BMP180;32805;53.556;9.944;2023-02-15T14:13:38;102241.00;;;8.30
17142;BMP180;32805;53.556;9.944;2023-02-15T14:16:17;102241.00;;;8.20
17142;BMP180;32805;53.556;9.944;2023-02-15T14:18:53;102229.00;;;8.20
17142;BMP180;32805;53.556;9.944;2023-02-15T14:21:29;102221.00;;;8.10
17142;BMP180;32805;53.556;9.944;2023-02-15T14:24:13;102243.00;;;8.10
17142;BMP180;32805;53.556;9.944;2023-02-15T14:26:49;102229.00;;;8.10
17142;BMP180;32805;53.556;9.944;2023-02-15T14:29:25;102230.00;;;8.00
17142;BMP180;32805;53.556;9.944;2023-02-15T14:31:58;102240.00;;;8.10
17142;BMP180;32805;53.556;9.944;2023-02-15T14:34:30;102225.00;;;8.10
17142;BMP180;32805;53.556;9.944;2023-02-15T14:37:03;102238.00;;;8.10
17142;BMP180;32805;53.556;9.944;2023-02-15T14:39:36;102229.00;;;8.10
17142;BMP180;32805;53.556;9.944;2023-02-15T14:42:30;102224.00;;;8.20